Time;durP1;ratioP1;P1;durP2;ratioP2;P2;SDS_P1;SDS_P2;PMS_P1;PMS_P2;Temp;Humidity;BMP_temperature;BMP_pressure;BME280_temperature;BME280_humidity;BME280_pressure;Samples;Min_cycle;Max_cycle;Signal;HPM_P1;HPM_P2
2021/09/14 00:04:01;;;;;;;13.27;7.15;;;;;;;12.41;85.24;101831.22;10187321;28;20061;-69
2021/09/14 00:08:58;;;;;;;13.45;7.40;;;;;;;12.41;84.97;101844.13;10188083;28;20121;-69
2021/09/14 00:13:54;;;;;;;12.98;8.38;;;;;;;12.35;85.28;101837.94;10181141;28;20041;-71
2021/09/14 00:18:51;;;;;;;11.30;7.22;;;;;;;12.34;85.25;101830.81;10186268;28;20628;-70
2021/09/14 00:23:47;;;;;;;11.15;6.57;;;;;;;12.31;85.07;101836.91;10189430;28;20045;-68
2021/09/14 00:28:44;;;;;;;12.85;7.07;;;;;;;12.27;84.96;101835.88;10193911;28;20046;-73
2021/09/14 00:33:40;;;;;;;12.05;6.78;;;;;;;12.22;85.11;101838.72;10187821;28;20045;-70
2021/09/14 00:38:37;;;;;;;10.63;7.18;;;;;;;12.19;85.26;101839.34;10188662;28;20041;-68
2021/09/14 00:43:34;;;;;;;16.08;7.68;;;;;;;12.17;85.21;101830.59;10189046;28;20083;-70
2021/09/14 00:48:30;;;;;;;12.60;7.25;;;;;;;12.11;85.50;101827.13;10183455;28;20053;-70
2021/09/14 00:53:27;;;;;;;13.43;6.22;;;;;;;12.11;85.72;101826.31;10191121;28;20441;-69
2021/09/14 00:58:24;;;;;;;16.17;6.50;;;;;;;12.08;85.69;101832.41;10183497;28;20057;-69
2021/09/14 01:03:20;;;;;;;10.13;6.05;;;;;;;12.04;85.56;101828.63;10189208;28;20072;-69
2021/09/14 01:08:17;;;;;;;11.65;6.90;;;;;;;11.96;85.54;101825.47;10183336;28;20057;-69
2021/09/14 01:13:14;;;;;;;11.32;6.20;;;;;;;11.93;85.31;101820.59;10183739;28;20095;-69
2021/09/14 01:18:10;;;;;;;10.30;5.97;;;;;;;11.92;85.63;101818.94;10186704;28;20041;-68
2021/09/14 01:23:06;;;;;;;12.98;7.38;;;;;;;11.89;85.73;101818.75;10189500;28;20100;-68
2021/09/14 01:28:05;;;;;;;11.70;6.68;;;;;;;11.85;85.92;101817.69;10189590;28;20096;-69
2021/09/14 01:33:01;;;;;;;10.38;6.13;;;;;;;11.84;86.06;101822.34;10190952;28;20108;-69
2021/09/14 01:37:58;;;;;;;10.23;6.18;;;;;;;11.84;85.97;101818.81;10186306;28;20046;-68
2021/09/14 01:42:55;;;;;;;10.55;5.68;;;;;;;11.81;86.24;101822.94;10184634;28;20072;-68
2021/09/14 01:47:52;;;;;;;9.15;5.50;;;;;;;11.79;86.30;101825.19;10185451;28;20072;-72
2021/09/14 01:52:48;;;;;;;10.93;6.32;;;;;;;11.79;86.40;101819.72;10188684;28;20496;-68
2021/09/14 01:57:45;;;;;;;11.18;5.95;;;;;;;11.77;86.44;101816.44;10182769;28;20084;-70
2021/09/14 02:08:16;;;;;;;10.38;5.55;;;;;;;11.75;86.43;101804.97;10184906;28;20665;-70
2021/09/14 02:39:50;;;;;;;11.65;5.10;;;;;;;11.71;86.85;101802.00;10188061;28;20064;-69
2021/09/14 02:45:05;;;;;;;7.53;4.50;;;;;;;11.71;86.60;101806.69;10194270;28;20050;-69
2021/09/14 03:00:32;;;;;;;8.43;4.50;;;;;;;11.62;87.12;101797.50;10186804;28;20069;-70
2021/09/14 03:05:30;;;;;;;9.10;4.63;;;;;;;11.59;86.86;101799.72;10181945;28;20049;-69
2021/09/14 03:10:26;;;;;;;6.40;3.80;;;;;;;11.59;86.64;101799.72;10189733;28;20128;-70
2021/09/14 03:15:23;;;;;;;10.60;4.30;;;;;;;11.64;86.67;101800.78;10194258;28;20736;-69
2021/09/14 03:20:19;;;;;;;8.77;4.32;;;;;;;11.67;87.03;101794.69;10190673;28;20141;-70
2021/09/14 03:25:16;;;;;;;7.57;4.25;;;;;;;11.71;87.47;101790.25;10190786;28;20177;-69
2021/09/14 03:30:13;;;;;;;8.32;4.00;;;;;;;11.79;87.73;101793.13;10194548;28;20909;-70
2021/09/14 03:35:11;;;;;;;7.57;4.32;;;;;;;11.84;88.26;101789.47;10190941;28;20140;-69
2021/09/14 03:40:08;;;;;;;8.25;4.57;;;;;;;11.88;88.27;101790.53;10190821;28;20049;-69
2021/09/14 03:45:05;;;;;;;10.68;4.50;;;;;;;11.93;88.47;101793.19;10183692;28;21271;-69
2021/09/14 03:50:03;;;;;;;10.60;4.20;;;;;;;11.99;88.86;101789.22;10191110;28;20073;-70
2021/09/14 03:55:00;;;;;;;9.15;4.15;;;;;;;12.06;88.52;101788.03;10179824;28;20129;-70
2021/09/14 03:59:57;;;;;;;12.18;5.13;;;;;;;12.09;88.47;101784.69;10188427;28;20046;-70
2021/09/14 04:09:53;;;;;;;7.55;3.88;;;;;;;12.14;88.79;101787.34;10188431;28;20042;-70
2021/09/14 04:14:49;;;;;;;7.75;4.03;;;;;;;12.18;88.67;101788.34;10185089;28;20041;-71
2021/09/14 04:19:46;;;;;;;8.32;4.10;;;;;;;12.20;88.86;101780.63;10188574;28;20096;-72
2021/09/14 04:24:42;;;;;;;8.70;3.80;;;;;;;12.26;89.10;101790.41;10190058;28;20046;-70
2021/09/14 04:29:39;;;;;;;7.80;4.22;;;;;;;12.31;89.17;101789.50;10187517;28;20487;-71
2021/09/14 04:34:36;;;;;;;9.75;4.47;;;;;;;12.35;89.29;101794.06;10187044;28;20104;-70
2021/09/14 04:39:32;;;;;;;8.43;4.20;;;;;;;12.40;89.47;101795.91;10185807;28;20042;-69
2021/09/14 04:44:29;;;;;;;9.13;3.78;;;;;;;12.42;89.48;101791.72;10186982;28;20042;-69
2021/09/14 04:49:25;;;;;;;11.45;4.18;;;;;;;12.47;89.61;101795.50;10181281;28;20497;-71
2021/09/14 04:54:21;;;;;;;7.38;3.88;;;;;;;12.49;89.70;101782.31;10187413;28;20077;-70
2021/09/14 04:59:18;;;;;;;11.63;4.05;;;;;;;12.53;89.83;101777.81;10187952;28;20069;-70
2021/09/14 05:04:14;;;;;;;8.98;3.55;;;;;;;12.56;89.77;101777.22;10185031;28;20072;-70
2021/09/14 05:09:11;;;;;;;8.55;2.95;;;;;;;12.59;89.53;101777.41;10186017;28;20069;-70
2021/09/14 05:14:07;;;;;;;6.68;3.40;;;;;;;12.63;89.96;101781.16;10187108;28;20462;-69
2021/09/14 05:19:07;;;;;;;10.57;3.50;;;;;;;12.67;90.04;101784.13;10177974;28;20050;-69
2021/09/14 05:24:03;;;;;;;10.73;3.85;;;;;;;12.70;90.05;101772.53;10179879;28;20729;-70
2021/09/14 05:29:00;;;;;;;8.40;3.22;;;;;;;12.74;90.07;101761.72;10185571;28;20042;-70
2021/09/14 05:33:57;;;;;;;7.32;3.17;;;;;;;12.79;90.41;101770.69;10179602;28;20038;-69
2021/09/14 05:38:53;;;;;;;13.15;4.15;;;;;;;12.83;90.12;101759.88;10185192;28;20461;-69
2021/09/14 05:43:49;;;;;;;8.13;3.97;;;;;;;12.87;90.25;101754.63;10185833;28;20085;-67
2021/09/14 05:48:46;;;;;;;10.77;3.53;;;;;;;12.91;90.43;101755.63;10184906;28;20073;-69
2021/09/14 05:53:42;;;;;;;10.52;3.75;;;;;;;12.95;90.66;101751.13;10187588;28;20046;-67
2021/09/14 05:58:39;;;;;;;10.02;3.80;;;;;;;13.02;90.40;101757.84;10185437;28;20084;-68
2021/09/14 06:03:36;;;;;;;8.35;3.42;;;;;;;13.06;90.13;101769.00;10184272;28;20045;-68
2021/09/14 06:08:32;;;;;;;9.57;3.90;;;;;;;13.13;89.94;101774.88;10181748;28;20065;-67
2021/09/14 06:13:29;;;;;;;12.18;3.85;;;;;;;13.21;90.42;101767.84;10190196;28;20042;-68
2021/09/14 06:18:25;;;;;;;12.52;4.90;;;;;;;13.29;90.68;101760.81;10193585;28;20104;-68
2021/09/14 06:23:23;;;;;;;13.00;3.88;;;;;;;13.39;90.87;101771.56;10194835;28;20416;-68
2021/09/14 06:28:19;;;;;;;10.63;3.75;;;;;;;13.51;91.61;101769.09;10190800;28;20050;-68
2021/09/14 06:33:16;;;;;;;16.83;4.45;;;;;;;13.58;91.61;101769.47;10190087;28;20050;-68
2021/09/14 06:38:12;;;;;;;9.07;3.85;;;;;;;13.65;91.76;101772.59;10191296;28;20061;-68
2021/09/14 06:43:09;;;;;;;8.60;4.38;;;;;;;13.78;91.82;101764.56;10189374;28;20125;-69
2021/09/14 06:48:05;;;;;;;14.93;4.15;;;;;;;13.86;92.06;101766.56;10183117;28;20053;-68
2021/09/14 06:53:02;;;;;;;9.57;4.18;;;;;;;13.92;91.94;101773.53;10184387;28;20084;-69
2021/09/14 06:57:58;;;;;;;7.80;4.07;;;;;;;13.93;91.47;101769.69;10185119;28;20099;-68
2021/09/14 07:02:55;;;;;;;12.85;5.03;;;;;;;13.94;91.28;101765.00;10187154;28;20091;-69
2021/09/14 07:07:51;;;;;;;9.23;4.30;;;;;;;14.00;91.04;101770.03;10191142;28;22001;-68
2021/09/14 07:12:48;;;;;;;10.75;4.53;;;;;;;14.08;91.23;101783.00;10188507;28;20041;-68
2021/09/14 07:17:44;;;;;;;8.55;4.10;;;;;;;14.20;90.98;101776.13;10188486;28;20054;-69
2021/09/14 07:22:42;;;;;;;7.88;3.97;;;;;;;14.32;91.08;101773.59;10188411;28;20046;-68
2021/09/14 07:27:39;;;;;;;9.18;4.18;;;;;;;14.39;90.88;101762.94;10184891;28;20104;-68
2021/09/14 07:32:36;;;;;;;8.77;4.20;;;;;;;14.51;90.32;101757.63;10189638;28;20637;-68
2021/09/14 07:37:32;;;;;;;9.35;4.93;;;;;;;14.57;89.57;101752.00;10188567;28;20041;-68
2021/09/14 07:42:29;;;;;;;11.75;4.63;;;;;;;14.52;89.37;101753.75;10188129;28;20049;-68
2021/09/14 07:47:25;;;;;;;10.82;4.40;;;;;;;14.63;89.43;101748.00;10185169;28;20516;-68
2021/09/14 07:52:22;;;;;;;9.35;4.50;;;;;;;14.65;88.51;101742.97;10187575;28;20073;-68
2021/09/14 07:57:18;;;;;;;9.38;3.92;;;;;;;14.81;88.08;101744.13;10181486;28;20501;-68
2021/09/14 08:02:15;;;;;;;7.63;3.30;;;;;;;14.92;87.97;101750.97;10187768;28;20041;-69
2021/09/14 08:07:11;;;;;;;10.30;2.70;;;;;;;14.97;86.23;101741.72;10189122;28;20050;-68
2021/09/14 08:12:08;;;;;;;7.68;2.97;;;;;;;15.08;86.35;101747.72;10187497;28;20046;-69
2021/09/14 08:17:04;;;;;;;10.27;3.63;;;;;;;15.20;85.38;101750.66;10188219;28;20069;-68
2021/09/14 08:22:01;;;;;;;8.93;3.38;;;;;;;15.28;84.90;101740.75;10181276;28;20575;-69
2021/09/14 08:26:57;;;;;;;5.05;2.65;;;;;;;15.42;85.20;101751.63;10184320;28;20128;-68
2021/09/14 08:31:54;;;;;;;13.40;3.33;;;;;;;15.51;84.51;101749.66;10187250;28;20104;-69
2021/09/14 08:36:50;;;;;;;8.00;3.42;;;;;;;15.60;84.68;101735.88;10184655;28;20127;-68
2021/09/14 08:41:47;;;;;;;8.30;3.00;;;;;;;15.71;83.49;101737.97;10187417;28;20044;-68
2021/09/14 08:46:44;;;;;;;8.75;3.17;;;;;;;15.86;82.17;101735.84;10182104;28;20392;-68
2021/09/14 08:51:41;;;;;;;8.35;2.75;;;;;;;16.00;81.69;101741.94;10185296;28;20054;-68
2021/09/14 08:56:38;;;;;;;7.18;2.60;;;;;;;16.11;81.47;101751.47;10180556;28;20069;-68
2021/09/14 09:01:34;;;;;;;10.95;3.03;;;;;;;16.24;80.78;101743.31;10189799;28;20542;-68
2021/09/14 09:06:38;;;;;;;6.68;2.30;;;;;;;16.35;80.21;101750.09;10184306;28;20115;-68
2021/09/14 09:11:35;;;;;;;11.80;3.13;;;;;;;16.43;78.43;101746.47;10183181;28;20041;-68
2021/09/14 09:16:31;;;;;;;6.75;2.28;;;;;;;16.63;79.27;101737.41;10184798;28;20720;-68
2021/09/14 09:21:34;;;;;;;5.20;2.20;;;;;;;16.76;78.43;101729.22;10186346;28;20575;-69
2021/09/14 09:26:36;;;;;;;7.57;2.40;;;;;;;16.72;78.92;101725.50;10176213;28;20132;-69
2021/09/14 09:31:34;;;;;;;5.93;2.42;;;;;;;16.79;79.22;101732.16;10185700;28;20053;-68
2021/09/14 09:36:34;;;;;;;5.68;2.25;;;;;;;16.87;76.58;101730.47;10183717;28;20102;-68
2021/09/14 09:41:35;;;;;;;6.30;2.30;;;;;;;17.04;76.72;101738.63;10183089;28;20065;-68
2021/09/14 09:46:35;;;;;;;7.65;2.22;;;;;;;17.12;76.26;101727.84;10183067;28;20042;-68
2021/09/14 09:51:35;;;;;;;5.60;1.73;;;;;;;17.28;75.91;101736.31;10187719;28;20046;-68
2021/09/14 09:56:33;;;;;;;6.55;1.98;;;;;;;17.43;73.83;101733.75;10182317;28;20073;-68
2021/09/14 10:01:32;;;;;;;6.88;1.75;;;;;;;17.60;73.16;101726.44;10186841;28;20093;-69
2021/09/14 10:06:30;;;;;;;7.10;1.88;;;;;;;17.75;72.09;101717.47;10182946;28;20500;-68
2021/09/14 10:11:29;;;;;;;4.95;2.20;;;;;;;17.71;72.06;101716.56;10184856;28;20076;-69
2021/09/14 10:16:25;;;;;;;6.68;2.05;;;;;;;17.85;69.46;101711.53;10181992;28;20065;-69
2021/09/14 10:21:22;;;;;;;8.00;1.88;;;;;;;17.99;71.00;101710.41;10186241;28;20121;-69
2021/09/14 10:26:19;;;;;;;3.75;1.73;;;;;;;18.50;69.13;101692.28;10183433;28;20526;-69
2021/09/14 10:31:22;;;;;;;4.53;1.48;;;;;;;19.17;68.85;101691.06;10181939;28;20387;-68
2021/09/14 10:36:18;;;;;;;4.30;1.43;;;;;;;19.39;65.61;101704.38;10182394;28;20046;-69
2021/09/14 10:41:15;;;;;;;6.05;1.98;;;;;;;19.53;62.25;101699.22;10181413;28;20096;-68
2021/09/14 10:46:20;;;;;;;5.28;2.22;;;;;;;19.72;65.02;101684.69;10177893;28;20124;-68
2021/09/14 10:51:17;;;;;;;4.70;1.55;;;;;;;19.92;66.21;101695.91;10177316;28;20088;-69
2021/09/14 10:56:14;;;;;;;7.35;1.80;;;;;;;19.64;61.96;101709.81;10180957;28;20176;-69
2021/09/14 11:01:13;;;;;;;3.90;1.73;;;;;;;19.75;63.29;101688.75;10189669;28;20470;-69
2021/09/14 11:06:10;;;;;;;4.55;1.60;;;;;;;19.78;65.80;101692.78;10192125;28;20156;-69
2021/09/14 11:11:07;;;;;;;3.85;1.70;;;;;;;19.71;65.19;101688.63;10189454;28;20042;-69
2021/09/14 11:16:05;;;;;;;5.30;2.20;;;;;;;19.44;65.04;101690.25;10191634;28;20527;-69
2021/09/14 11:21:07;;;;;;;6.22;2.00;;;;;;;19.43;64.55;101677.56;10190092;28;20138;-69
2021/09/14 11:26:07;;;;;;;5.53;2.20;;;;;;;19.86;65.39;101678.69;10191842;28;20527;-69
2021/09/14 11:31:11;;;;;;;3.20;1.50;;;;;;;20.29;66.40;101665.88;10186611;28;20411;-69
2021/09/14 11:36:08;;;;;;;5.32;2.40;;;;;;;20.69;61.24;101670.34;10186163;28;20069;-68
2021/09/14 11:41:10;;;;;;;3.97;1.67;;;;;;;20.70;65.00;101660.84;10186727;28;20516;-69
2021/09/14 11:46:17;;;;;;;11.02;2.55;;;;;;;21.33;61.78;101656.16;10183812;28;20099;-68
2021/09/14 11:51:14;;;;;;;3.80;1.83;;;;;;;21.50;63.61;101663.22;10184474;28;20141;-69
2021/09/14 11:56:16;;;;;;;5.35;2.17;;;;;;;21.70;59.88;101661.19;10190225;28;20076;-68
2021/09/14 12:01:15;;;;;;;6.72;2.05;;;;;;;21.77;57.96;101652.94;10189566;28;20412;-69
2021/09/14 12:06:21;;;;;;;4.65;2.05;;;;;;;21.98;52.90;101647.75;10186640;28;20052;-69
2021/09/14 12:11:34;;;;;;;3.88;2.00;;;;;;;22.79;56.71;101648.50;10185697;28;20425;-69
2021/09/14 12:16:36;;;;;;;5.22;2.10;;;;;;;23.16;54.12;101634.63;10184933;28;20054;-69
2021/09/14 12:21:33;;;;;;;11.18;2.63;;;;;;;23.34;54.00;101639.59;10189366;28;20085;-68
2021/09/14 12:26:38;;;;;;;4.00;1.70;;;;;;;23.65;57.76;101633.50;10187510;28;20046;-69
2021/09/14 12:31:35;;;;;;;4.57;1.85;;;;;;;23.52;54.45;101629.41;10182592;28;20050;-68
2021/09/14 12:36:32;;;;;;;4.80;2.08;;;;;;;23.59;56.24;101618.28;10180401;28;20049;-68
2021/09/14 12:41:28;;;;;;;4.43;2.00;;;;;;;22.78;58.30;101630.97;10182842;28;20089;-69
2021/09/14 12:46:25;;;;;;;6.93;2.20;;;;;;;22.77;57.01;101623.81;10185092;28;20141;-68
2021/09/14 12:51:21;;;;;;;8.35;2.40;;;;;;;23.61;57.50;101613.13;10185491;28;20041;-69
2021/09/14 12:56:18;;;;;;;7.03;2.28;;;;;;;23.87;54.13;101616.94;10184711;28;20074;-69
2021/09/14 13:01:19;;;;;;;6.07;2.47;;;;;;;23.62;52.39;101600.75;10187618;28;20041;-69
2021/09/14 13:06:16;;;;;;;5.70;2.13;;;;;;;23.46;53.56;101597.44;10185468;28;20038;-69
2021/09/14 13:11:12;;;;;;;4.57;2.20;;;;;;;23.07;53.65;101597.88;10186158;28;20107;-68
2021/09/14 13:16:14;;;;;;;6.68;2.25;;;;;;;22.53;54.83;101590.84;10184790;28;20080;-69
2021/09/14 13:21:12;;;;;;;8.13;2.20;;;;;;;22.37;57.92;101589.06;10185211;28;20515;-69
2021/09/14 13:26:08;;;;;;;5.30;2.10;;;;;;;22.31;56.78;101567.47;10177971;28;20050;-69
2021/09/14 13:31:06;;;;;;;5.68;2.10;;;;;;;23.10;56.34;101563.63;10183703;28;20045;-69
2021/09/14 13:36:03;;;;;;;4.97;2.35;;;;;;;23.45;55.18;101556.78;10184861;28;20066;-69
2021/09/14 13:41:07;;;;;;;3.85;2.00;;;;;;;23.56;54.92;101546.50;10182657;28;20072;-69
2021/09/14 13:51:11;;;;;;;5.32;1.92;;;;;;;23.14;54.83;101561.69;10177047;28;20156;-68
2021/09/14 13:56:11;;;;;;;5.53;2.28;;;;;;;23.10;54.31;101549.69;10183929;28;20104;-69
2021/09/14 14:01:07;;;;;;;4.55;2.13;;;;;;;23.09;54.20;101545.28;10188566;28;20042;-69
2021/09/14 14:06:04;;;;;;;6.55;2.45;;;;;;;23.17;54.42;101546.16;10184833;28;20507;-70
2021/09/14 14:11:00;;;;;;;8.63;2.30;;;;;;;23.56;53.30;101540.91;10183823;28;20133;-69
2021/09/14 14:15:57;;;;;;;7.65;1.85;;;;;;;23.62;52.53;101544.13;10187801;28;20199;-69
2021/09/14 14:20:54;;;;;;;4.80;2.15;;;;;;;23.41;51.57;101539.19;10183916;28;20073;-68
2021/09/14 14:25:50;;;;;;;4.65;2.08;;;;;;;23.39;54.81;101530.41;10186473;28;20069;-68
2021/09/14 14:30:47;;;;;;;4.15;2.13;;;;;;;23.29;53.56;101541.09;10183562;28;20100;-69
2021/09/14 14:35:43;;;;;;;5.82;2.45;;;;;;;22.88;53.65;101546.66;10182719;28;20133;-69
2021/09/14 14:40:42;;;;;;;7.30;2.65;;;;;;;22.66;54.10;101545.63;10190551;28;20112;-69
2021/09/14 14:45:39;;;;;;;6.10;2.47;;;;;;;22.56;54.70;101543.53;10186450;28;20042;-69
2021/09/14 14:50:36;;;;;;;5.13;2.40;;;;;;;22.33;55.01;101531.69;10185023;28;20069;-68
2021/09/14 14:55:32;;;;;;;7.30;2.63;;;;;;;22.58;56.80;101518.88;10190592;28;20065;-68
2021/09/14 15:00:29;;;;;;;7.32;2.10;;;;;;;22.37;56.96;101518.59;10188370;28;20128;-69
2021/09/14 15:05:30;;;;;;;4.38;2.20;;;;;;;22.26;57.43;101504.56;10189672;28;20072;-69
2021/09/14 15:10:26;;;;;;;6.20;3.00;;;;;;;22.12;57.26;101509.88;10187962;28;20048;-69
2021/09/14 15:15:23;;;;;;;5.65;2.97;;;;;;;22.09;58.21;101510.66;10190338;28;20077;-68
2021/09/14 15:20:19;;;;;;;7.28;3.03;;;;;;;22.11;59.48;101502.72;10188456;28;20046;-68
2021/09/14 15:25:17;;;;;;;7.13;3.80;;;;;;;22.17;59.96;101504.00;10191556;28;20847;-68
2021/09/14 15:30:23;;;;;;;6.38;3.67;;;;;;;22.01;58.19;101504.19;10188999;28;20472;-69
2021/09/14 15:35:23;;;;;;;7.97;3.92;;;;;;;21.80;59.98;101507.47;10192738;28;20046;-68
2021/09/14 15:40:19;;;;;;;7.50;3.40;;;;;;;21.79;59.46;101500.28;10188557;28;20491;-68
2021/09/14 15:45:16;;;;;;;7.88;3.90;;;;;;;21.75;60.15;101494.69;10187162;28;20050;-68
2021/09/14 15:50:12;;;;;;;8.93;3.90;;;;;;;21.68;61.08;101493.78;10189135;28;20132;-67
2021/09/14 15:55:10;;;;;;;6.10;3.60;;;;;;;21.67;60.62;101492.16;10184388;28;20127;-68
2021/09/14 16:00:07;;;;;;;11.77;3.95;;;;;;;21.63;61.35;101490.16;10191772;28;20570;-68
2021/09/14 16:05:05;;;;;;;6.40;3.75;;;;;;;21.63;61.89;101484.59;10186530;28;20566;-68
2021/09/14 16:10:02;;;;;;;7.70;3.80;;;;;;;21.56;62.87;101478.91;10185083;28;20056;-68
2021/09/14 16:14:59;;;;;;;6.32;3.10;;;;;;;21.54;62.07;101475.69;10186104;28;20050;-68
2021/09/14 16:19:55;;;;;;;8.43;3.58;;;;;;;21.55;62.23;101477.28;10187210;28;20107;-68
2021/09/14 16:24:52;;;;;;;6.13;3.80;;;;;;;21.45;62.89;101477.94;10190591;28;20053;-68
2021/09/14 16:29:52;;;;;;;4.70;3.10;;;;;;;21.28;62.37;101472.88;10188133;28;20192;-68
2021/09/14 16:34:49;;;;;;;7.00;3.55;;;;;;;21.19;63.31;101482.28;10185632;28;20069;-68
2021/09/14 16:39:46;;;;;;;5.97;3.65;;;;;;;20.97;63.89;101469.19;10187847;28;20046;-68
2021/09/14 16:44:43;;;;;;;6.82;3.25;;;;;;;20.91;63.66;101477.03;10185716;28;20049;-68
2021/09/14 16:49:40;;;;;;;7.30;3.45;;;;;;;20.70;63.42;101474.69;10185120;28;20450;-68
2021/09/14 16:54:37;;;;;;;6.82;3.17;;;;;;;20.54;63.79;101485.06;10185881;28;20077;-68
2021/09/14 16:59:34;;;;;;;7.10;3.63;;;;;;;20.38;64.76;101483.16;10183714;28;20661;-68
2021/09/14 17:04:30;;;;;;;7.00;3.88;;;;;;;20.26;65.06;101486.09;10175210;28;20060;-69
2021/09/14 17:09:27;;;;;;;7.57;3.55;;;;;;;20.17;65.65;101477.19;10176179;28;20070;-68
2021/09/14 17:14:24;;;;;;;9.73;3.72;;;;;;;20.01;66.32;101479.22;10168001;28;20131;-69
2021/09/14 17:19:20;;;;;;;5.07;3.63;;;;;;;19.89;67.68;101474.59;10182617;28;20053;-68
2021/09/14 17:24:17;;;;;;;9.23;4.00;;;;;;;19.77;67.79;101481.06;10185035;28;20053;-68
2021/09/14 17:29:13;;;;;;;5.90;4.20;;;;;;;19.62;68.31;101481.91;10184690;28;20487;-69
2021/09/14 17:34:10;;;;;;;8.63;5.03;;;;;;;19.53;69.20;101480.09;10185721;28;20081;-68
2021/09/14 17:39:06;;;;;;;9.50;4.45;;;;;;;19.45;69.62;101481.13;10184199;28;20042;-69
2021/09/14 17:44:03;;;;;;;6.50;4.15;;;;;;;19.34;69.74;101480.06;10184358;28;20038;-68
2021/09/14 17:49:00;;;;;;;5.70;4.25;;;;;;;19.23;69.83;101473.44;10180532;28;20124;-68
2021/09/14 17:53:57;;;;;;;7.20;4.35;;;;;;;19.11;70.10;101472.38;10181686;28;20122;-68
2021/09/14 17:58:53;;;;;;;9.25;3.97;;;;;;;19.02;70.77;101473.72;10180810;28;20099;-68
2021/09/14 18:03:50;;;;;;;8.45;5.00;;;;;;;18.92;70.89;101477.81;10173177;28;20073;-68
2021/09/14 18:08:46;;;;;;;8.68;5.50;;;;;;;18.83;71.15;101471.66;10183666;28;20045;-68
2021/09/14 18:13:43;;;;;;;8.45;5.50;;;;;;;18.75;71.53;101480.88;10187590;28;20046;-68
2021/09/14 18:18:39;;;;;;;8.00;4.88;;;;;;;18.66;71.91;101479.09;10181618;28;20145;-68
2021/09/14 18:23:36;;;;;;;7.80;4.75;;;;;;;18.59;71.88;101473.38;10192227;28;20089;-68
2021/09/14 18:28:32;;;;;;;12.18;4.85;;;;;;;18.52;72.31;101470.41;10184310;28;20562;-69
2021/09/14 18:33:29;;;;;;;7.25;4.50;;;;;;;18.48;72.54;101472.28;10177809;28;20053;-68
2021/09/14 18:38:25;;;;;;;11.77;5.65;;;;;;;18.36;72.82;101464.81;10187122;28;20484;-68
2021/09/14 18:43:22;;;;;;;9.68;4.80;;;;;;;18.33;73.46;101462.75;10179350;28;20550;-68
2021/09/14 18:48:18;;;;;;;9.30;5.25;;;;;;;18.25;73.45;101458.19;10177394;28;20069;-68
2021/09/14 18:53:15;;;;;;;10.25;4.90;;;;;;;18.20;73.73;101462.00;10182841;28;20072;-68
2021/09/14 18:58:11;;;;;;;9.85;5.43;;;;;;;18.17;73.56;101467.41;10188573;28;20459;-68
2021/09/14 19:03:10;;;;;;;10.07;4.70;;;;;;;18.10;73.47;101465.25;10187740;28;20069;-68
2021/09/14 19:08:08;;;;;;;6.55;4.70;;;;;;;18.06;73.68;101464.38;10183473;28;20571;-68
2021/09/14 19:13:06;;;;;;;8.70;5.00;;;;;;;18.02;73.78;101466.22;10185398;28;20507;-70
2021/09/14 19:18:03;;;;;;;10.48;5.25;;;;;;;18.02;74.17;101467.00;10179702;28;20124;-68
2021/09/14 19:23:00;;;;;;;8.38;4.60;;;;;;;18.01;74.46;101453.53;10188690;28;21537;-67
2021/09/14 19:27:56;;;;;;;7.38;4.68;;;;;;;18.00;74.35;101446.38;10184003;28;20096;-68
2021/09/14 19:32:53;;;;;;;8.32;4.53;;;;;;;17.96;74.16;101448.25;10190385;28;20050;-68
2021/09/14 19:37:49;;;;;;;6.63;4.25;;;;;;;17.92;74.60;101439.06;10187139;28;20034;-68
2021/09/14 19:42:46;;;;;;;10.43;4.35;;;;;;;17.82;74.63;101430.09;10189725;28;20050;-68
2021/09/14 19:47:42;;;;;;;9.93;5.07;;;;;;;17.78;74.60;101434.66;10188683;28;20508;-68
2021/09/14 19:52:39;;;;;;;8.48;4.63;;;;;;;17.73;74.49;101426.63;10191571;28;20045;-68
2021/09/14 19:57:36;;;;;;;9.15;5.05;;;;;;;17.67;74.72;101431.56;10183859;28;20065;-68
2021/09/14 20:02:32;;;;;;;9.02;4.68;;;;;;;17.62;74.60;101433.78;10186493;28;20074;-68
2021/09/14 20:07:30;;;;;;;9.20;4.93;;;;;;;17.53;74.72;101427.56;10187870;28;20129;-69
2021/09/14 20:12:26;;;;;;;8.65;6.10;;;;;;;17.43;75.25;101435.19;10188783;28;20108;-70
2021/09/14 20:17:23;;;;;;;11.85;5.90;;;;;;;17.44;75.17;101431.25;10188838;28;20084;-68
2021/09/14 20:22:19;;;;;;;14.18;5.68;;;;;;;17.38;75.48;101424.38;10188430;28;20467;-69
2021/09/14 20:27:16;;;;;;;8.25;5.00;;;;;;;17.39;75.17;101422.41;10189978;28;20100;-69
2021/09/14 20:32:12;;;;;;;7.13;4.22;;;;;;;17.35;75.23;101416.75;10186250;28;20058;-69
2021/09/14 20:37:09;;;;;;;6.45;4.72;;;;;;;17.35;75.67;101413.19;10187058;28;20073;-69
2021/09/14 20:42:05;;;;;;;9.68;4.70;;;;;;;17.23;75.59;101419.53;10186271;28;20499;-69
2021/09/14 20:47:02;;;;;;;7.57;4.63;;;;;;;17.19;76.22;101424.13;10187685;28;20045;-69
2021/09/14 20:51:59;;;;;;;8.63;5.70;;;;;;;17.19;75.66;101413.06;10186765;28;20042;-72
2021/09/14 20:56:55;;;;;;;12.07;5.85;;;;;;;17.13;75.91;101414.47;10186591;28;20034;-72
2021/09/14 21:01:51;;;;;;;6.82;5.07;;;;;;;17.13;75.67;101408.97;10188530;28;20104;-69
2021/09/14 21:06:48;;;;;;;7.57;4.90;;;;;;;17.06;75.82;101408.69;10183368;28;20042;-68
2021/09/14 21:11:45;;;;;;;8.10;5.00;;;;;;;16.96;76.56;101416.28;10186380;28;20089;-68
2021/09/14 21:16:41;;;;;;;8.75;5.22;;;;;;;16.99;76.26;101421.16;10185170;28;20098;-68
2021/09/14 21:21:38;;;;;;;9.30;5.75;;;;;;;16.86;76.45;101411.22;10187097;28;20069;-67
2021/09/14 21:26:34;;;;;;;11.45;5.95;;;;;;;16.97;76.59;101423.44;10184865;28;20044;-68
2021/09/14 21:31:31;;;;;;;9.63;4.80;;;;;;;16.95;76.80;101417.44;10188110;28;20141;-68
2021/09/14 21:36:27;;;;;;;8.70;5.60;;;;;;;16.85;76.89;101404.09;10183657;28;20552;-69
2021/09/14 21:41:24;;;;;;;9.65;5.07;;;;;;;16.83;76.71;101389.84;10185890;28;20054;-68
2021/09/14 21:46:20;;;;;;;9.45;5.60;;;;;;;16.86;76.37;101378.09;10184028;28;20573;-68
2021/09/14 21:51:17;;;;;;;8.73;5.30;;;;;;;16.86;76.46;101383.63;10184489;28;20049;-68
2021/09/14 21:56:13;;;;;;;9.77;5.22;;;;;;;16.84;76.33;101380.38;10180787;28;20037;-69
2021/09/14 22:01:10;;;;;;;7.70;5.38;;;;;;;16.82;76.37;101393.72;10187430;28;20042;-69
2021/09/14 22:06:07;;;;;;;8.02;5.38;;;;;;;16.76;76.50;101386.81;10183634;28;20092;-70
2021/09/14 22:11:03;;;;;;;8.45;5.57;;;;;;;16.75;76.77;101390.69;10183618;28;20042;-69
2021/09/14 22:16:03;;;;;;;8.40;5.18;;;;;;;16.79;76.39;101391.66;10184923;28;20140;-69
2021/09/14 22:21:00;;;;;;;10.70;5.80;;;;;;;16.68;76.70;101390.47;10182841;28;20076;-70
2021/09/14 22:25:56;;;;;;;8.38;4.40;;;;;;;16.72;76.71;101383.13;10180675;28;20045;-68
2021/09/14 22:30:53;;;;;;;7.60;4.95;;;;;;;16.75;76.42;101371.38;10186164;28;20080;-69
2021/09/14 22:35:49;;;;;;;7.95;4.88;;;;;;;16.69;76.34;101379.09;10183546;28;20069;-71
2021/09/14 22:40:46;;;;;;;8.48;5.00;;;;;;;16.62;76.02;101381.63;10183394;28;20454;-69
2021/09/14 22:45:42;;;;;;;7.63;4.45;;;;;;;16.68;76.05;101371.13;10183112;28;20045;-69
2021/09/14 22:50:39;;;;;;;12.18;5.13;;;;;;;16.67;76.56;101380.59;10183830;28;20092;-71
2021/09/14 22:55:35;;;;;;;7.07;4.82;;;;;;;16.63;76.15;101364.69;10184995;28;20092;-69
2021/09/14 23:00:32;;;;;;;7.22;4.75;;;;;;;16.60;76.44;101357.09;10193139;28;20133;-66
2021/09/14 23:05:29;;;;;;;7.75;3.67;;;;;;;16.65;76.31;101355.28;10190554;28;20939;-66
2021/09/14 23:10:25;;;;;;;8.10;4.82;;;;;;;16.65;76.09;101349.75;10190567;28;20050;-68
2021/09/14 23:15:22;;;;;;;7.70;3.47;;;;;;;16.62;76.26;101338.25;10192228;28;20100;-71
2021/09/14 23:20:18;;;;;;;6.38;4.05;;;;;;;16.66;76.12;101340.31;10190640;28;20136;-69
2021/09/14 23:25:15;;;;;;;6.03;3.85;;;;;;;16.64;76.19;101337.91;10193171;28;20485;-69
2021/09/14 23:30:12;;;;;;;7.95;4.10;;;;;;;16.62;75.92;101331.91;10191678;28;20050;-68
2021/09/14 23:35:09;;;;;;;6.90;3.85;;;;;;;16.62;76.53;101332.72;10186006;28;20050;-67